Check out our new BloomSky Weather System.

Active alerts

Houston, TX
  Details for Houston, TX River Flood Warning  +1 additional alert
Fort Bend, TX
  Details for Fort Bend, TX River Flood Warning  +1 additional alert


Thunder radar  blitzortung!


Rain radar more information rain snow radar


Visit our other weather sites:

Template documentation
and downloads

And another site



Weather Underground History page Text

Daily Summary for February 12, 2018 Units:  English    Metric   Both
« Previous Day
Next Day »
Daily Weekly Monthly Yearly Custom
  High: Low: Average:
Temperature: TemperatureF °F 34.7 °F 40.4 °F
Dew Point: DewpointF °F 31.1 °F 37.2 °F
Humidity: Humidity % 83 % 88 %
Wind Speed: WindSpeedMPH mph 0.0 mph 2.3 mph
Wind Gust: WindSpeedGustMPH mph - -
Wind:- - SW
Pressure: PressureIn in 30.27 in -
Precipitation: 0.00 in    
Historical Graphs
 
 
Tabular Data for February 12, 2018
Time Temperature Dew Point Pressure Wind Wind Speed Wind Gust Humidity Rainfall Rate (Hourly)
TemperatureF °F DewpointF °F PressureIn in Calm     Humidity % HourlyPrecipIn in
00:00 37.0 °F 32.7 °F 30.27 in WNW 5.0 mph 8.0 mph 84 % 0.00 in
00:05 37.0 °F 32.7 °F 30.28 in NNW 3.0 mph 8.0 mph 84 % 0.00 in
00:10 37.0 °F 32.7 °F 30.28 in WNW 1.0 mph 8.0 mph 84 % 0.00 in
00:15 37.0 °F 32.7 °F 30.28 in NNE 6.0 mph 7.0 mph 84 % 0.00 in
00:20 37.0 °F 32.4 °F 30.28 in NW 4.0 mph 9.0 mph 83 % 0.00 in
00:25 37.0 °F 32.4 °F 30.28 in NW 5.0 mph 9.0 mph 83 % 0.00 in
00:30 36.9 °F 32.2 °F 30.28 in NNE 3.0 mph 10.0 mph 83 % 0.00 in
00:35 36.9 °F 32.2 °F 30.28 in NW 3.0 mph 10.0 mph 83 % 0.00 in
00:40 36.9 °F 32.2 °F 30.28 in NW 4.0 mph 10.0 mph 83 % 0.00 in
00:45 36.9 °F 32.2 °F 30.28 in NW 4.0 mph 10.0 mph 83 % 0.00 in
00:50 36.7 °F 32.0 °F 30.28 in NNW 2.0 mph 8.0 mph 83 % 0.00 in
00:55 36.7 °F 32.0 °F 30.28 in NW 3.0 mph 9.0 mph 83 % 0.00 in
01:00 36.3 °F 31.6 °F 30.29 in WNW 3.0 mph 11.0 mph 83 % 0.00 in
01:05 36.3 °F 31.6 °F 30.29 in NW 4.0 mph 11.0 mph 83 % 0.00 in
01:10 36.1 °F 31.5 °F 30.29 in NW 1.0 mph 11.0 mph 83 % 0.00 in
01:15 36.0 °F 31.6 °F 30.29 in NNW 2.0 mph 9.0 mph 84 % 0.00 in
01:20 36.0 °F 31.6 °F 30.29 in NNW 2.0 mph 9.0 mph 84 % 0.00 in
01:25 36.0 °F 31.6 °F 30.29 in NNW 3.0 mph 8.0 mph 84 % 0.00 in
01:30 35.8 °F 31.5 °F 30.29 in NNW 1.0 mph 7.0 mph 84 % 0.00 in
01:35 35.8 °F 31.6 °F 30.29 in NNW 1.0 mph 7.0 mph 85 % 0.00 in
01:40 35.6 °F 31.5 °F 30.29 in Calm   7.0 mph 85 % 0.00 in
01:45 35.4 °F 31.3 °F 30.29 in North 8.0 mph 8.0 mph 85 % 0.00 in
01:50 35.4 °F 31.3 °F 30.28 in Calm   8.0 mph 85 % 0.00 in
01:55 35.4 °F 31.3 °F 30.29 in NW 2.0 mph 9.0 mph 85 % 0.00 in
02:00 35.2 °F 31.1 °F 30.28 in West 1.0 mph 9.0 mph 85 % 0.00 in
02:05 35.2 °F 31.1 °F 30.28 in NW 1.0 mph 9.0 mph 85 % 0.00 in
02:10 35.2 °F 31.5 °F 30.28 in North 2.0 mph 7.0 mph 86 % 0.00 in
02:15 35.1 °F 31.3 °F 30.28 in West 5.0 mph 8.0 mph 86 % 0.00 in
02:20 35.1 °F 31.3 °F 30.28 in WNW 1.0 mph 9.0 mph 86 % 0.00 in
02:25 35.1 °F 31.3 °F 30.28 in NNW 3.0 mph 9.0 mph 86 % 0.00 in
02:30 34.9 °F 31.1 °F 30.28 in NNW 1.0 mph 9.0 mph 86 % 0.00 in
02:35 34.9 °F 31.5 °F 30.28 in NW 3.0 mph 8.0 mph 87 % 0.00 in
02:40 34.9 °F 31.5 °F 30.28 in NW 3.0 mph 8.0 mph 87 % 0.00 in
02:45 34.9 °F 31.5 °F 30.28 in NW 4.0 mph 8.0 mph 87 % 0.00 in
02:50 34.7 °F 31.3 °F 30.27 in NNW 3.0 mph 8.0 mph 87 % 0.00 in
02:55 34.7 °F 31.5 °F 30.28 in NW 2.0 mph 9.0 mph 88 % 0.00 in
03:00 34.9 °F 31.6 °F 30.28 in North 9.0 mph 11.0 mph 88 % 0.00 in
03:05 34.9 °F 31.6 °F 30.28 in NW 7.0 mph 11.0 mph 88 % 0.00 in
03:10 34.9 °F 31.6 °F 30.28 in Calm   11.0 mph 88 % 0.00 in
03:15 34.9 °F 31.6 °F 30.28 in NNW 2.0 mph 12.0 mph 88 % 0.00 in
03:20 35.1 °F 31.8 °F 30.29 in North 1.0 mph 12.0 mph 88 % 0.00 in
03:25 35.1 °F 32.2 °F 30.28 in SSE 2.0 mph 12.0 mph 89 % 0.00 in
03:30 35.1 °F 32.2 °F 30.29 in NE 8.0 mph 9.0 mph 89 % 0.00 in
03:35 35.1 °F 32.2 °F 30.29 in NW 2.0 mph 10.0 mph 89 % 0.00 in
03:40 35.2 °F 32.4 °F 30.29 in NW 3.0 mph 10.0 mph 89 % 0.00 in
03:45 35.2 °F 32.4 °F 30.29 in NW 5.0 mph 11.0 mph 89 % 0.00 in
03:50 35.2 °F 32.4 °F 30.29 in NW 5.0 mph 11.0 mph 89 % 0.00 in
03:55 35.2 °F 32.4 °F 30.29 in NNW 1.0 mph 11.0 mph 89 % 0.00 in
04:00 35.2 °F 32.4 °F 30.29 in Calm   10.0 mph 89 % 0.00 in
04:05 35.4 °F 32.5 °F 30.30 in NNW 1.0 mph 13.0 mph 89 % 0.00 in
04:10 35.4 °F 32.5 °F 30.30 in NNE 5.0 mph 13.0 mph 89 % 0.00 in
04:15 35.4 °F 32.5 °F 30.30 in NNE 2.0 mph 13.0 mph 89 % 0.00 in
04:20 35.4 °F 32.5 °F 30.30 in NNE 4.0 mph 10.0 mph 89 % 0.00 in
04:25 35.4 °F 32.5 °F 30.30 in NW 2.0 mph 10.0 mph 89 % 0.00 in
04:30 35.4 °F 32.5 °F 30.30 in NNW 1.0 mph 10.0 mph 89 % 0.00 in
04:35 35.4 °F 32.5 °F 30.30 in NW 3.0 mph 7.0 mph 89 % 0.00 in
04:40 35.4 °F 32.5 °F 30.30 in WSW 1.0 mph 9.0 mph 89 % 0.00 in
04:45 35.4 °F 32.5 °F 30.30 in NNE 1.0 mph 10.0 mph 89 % 0.00 in
04:51 35.4 °F 32.5 °F 30.31 in WNW 3.0 mph 10.0 mph 89 % 0.00 in
04:56 35.4 °F 32.5 °F 30.31 in ENE 3.0 mph 10.0 mph 89 % 0.00 in
05:01 35.4 °F 32.5 °F 30.30 in NE 2.0 mph 8.0 mph 89 % 0.00 in
05:06 35.4 °F 32.5 °F 30.30 in Calm   8.0 mph 89 % 0.00 in
05:11 35.6 °F 32.9 °F 30.31 in North 4.0 mph 8.0 mph 90 % 0.00 in
05:16 35.4 °F 32.7 °F 30.31 in SE 2.0 mph 9.0 mph 90 % 0.00 in
05:21 35.6 °F 32.9 °F 30.31 in NNW 1.0 mph 9.0 mph 90 % 0.00 in
05:25 35.6 °F 32.9 °F 30.32 in NNW 6.0 mph 9.0 mph 90 % 0.00 in
05:30 35.6 °F 32.9 °F 30.32 in NW 1.0 mph 7.0 mph 90 % 0.00 in
05:35 35.8 °F 33.1 °F 30.32 in NW 2.0 mph 7.0 mph 90 % 0.00 in
05:40 35.8 °F 33.1 °F 30.32 in NNW 3.0 mph 7.0 mph 90 % 0.00 in
05:45 35.8 °F 33.1 °F 30.32 in NW 3.0 mph 8.0 mph 90 % 0.00 in
05:51 35.8 °F 33.1 °F 30.32 in North 1.0 mph 8.0 mph 90 % 0.00 in
05:56 35.8 °F 33.1 °F 30.32 in NNW 5.0 mph 8.0 mph 90 % 0.00 in
06:01 35.8 °F 33.1 °F 30.32 in Calm   11.0 mph 90 % 0.00 in
06:06 35.8 °F 33.1 °F 30.33 in NNE 4.0 mph 11.0 mph 90 % 0.00 in
06:11 35.8 °F 33.1 °F 30.33 in North 5.0 mph 11.0 mph 90 % 0.00 in
06:16 35.8 °F 33.1 °F 30.33 in NW 1.0 mph 13.0 mph 90 % 0.00 in
06:21 36.0 °F 33.6 °F 30.33 in NNW 4.0 mph 13.0 mph 91 % 0.00 in
06:26 35.8 °F 33.4 °F 30.33 in NW 4.0 mph 13.0 mph 91 % 0.00 in
06:31 36.0 °F 33.6 °F 30.33 in East 4.0 mph 9.0 mph 91 % 0.00 in
06:36 36.0 °F 33.6 °F 30.33 in NNW 2.0 mph 9.0 mph 91 % 0.00 in
06:41 36.0 °F 33.6 °F 30.34 in North 2.0 mph 9.0 mph 91 % 0.00 in
06:46 36.0 °F 33.6 °F 30.34 in Calm   9.0 mph 91 % 0.00 in
06:51 36.0 °F 33.6 °F 30.34 in NW 2.0 mph 8.0 mph 91 % 0.00 in
06:56 36.1 °F 33.8 °F 30.35 in NNW 1.0 mph 8.0 mph 91 % 0.00 in
07:01 36.1 °F 33.8 °F 30.35 in NNE 7.0 mph 10.0 mph 91 % 0.00 in
07:06 36.1 °F 33.8 °F 30.35 in North 2.0 mph 10.0 mph 91 % 0.00 in
07:11 36.3 °F 34.0 °F 30.35 in North 1.0 mph 10.0 mph 91 % 0.00 in
07:16 36.1 °F 33.8 °F 30.35 in WNW 1.0 mph 11.0 mph 91 % 0.00 in
07:21 36.1 °F 33.8 °F 30.35 in North 3.0 mph 11.0 mph 91 % 0.00 in
07:26 36.1 °F 33.8 °F 30.35 in NNE 4.0 mph 11.0 mph 91 % 0.00 in
07:31 36.1 °F 33.8 °F 30.35 in NW 1.0 mph 12.0 mph 91 % 0.00 in
07:36 36.1 °F 33.8 °F 30.35 in NNW 2.0 mph 12.0 mph 91 % 0.00 in
07:41 36.1 °F 33.8 °F 30.35 in NNW 2.0 mph 12.0 mph 91 % 0.00 in
07:46 36.1 °F 33.8 °F 30.35 in NNE 8.0 mph 11.0 mph 91 % 0.00 in
07:51 36.3 °F 34.2 °F 30.36 in NNW 7.0 mph 11.0 mph 92 % 0.00 in
07:56 36.3 °F 34.2 °F 30.36 in North 5.0 mph 11.0 mph 92 % 0.00 in
08:01 36.3 °F 34.2 °F 30.36 in NW 3.0 mph 11.0 mph 92 % 0.00 in
08:06 36.3 °F 34.2 °F 30.36 in NW 4.0 mph 11.0 mph 92 % 0.00 in
08:11 36.3 °F 34.2 °F 30.36 in NNW 1.0 mph 11.0 mph 92 % 0.00 in
08:16 36.7 °F 34.5 °F 30.36 in NW 1.0 mph 9.0 mph 92 % 0.00 in
08:21 36.7 °F 34.5 °F 30.36 in NW 1.0 mph 9.0 mph 92 % 0.00 in
08:26 36.9 °F 34.7 °F 30.37 in NW 2.0 mph 9.0 mph 92 % 0.00 in
08:31 36.9 °F 34.5 °F 30.37 in WNW 1.0 mph 9.0 mph 91 % 0.00 in
08:36 37.0 °F 34.7 °F 30.38 in Calm   7.0 mph 91 % 0.00 in
08:41 37.2 °F 34.9 °F 30.38 in NNE 3.0 mph 7.0 mph 91 % 0.00 in
08:46 37.2 °F 34.9 °F 30.38 in North 1.0 mph 7.0 mph 91 % 0.00 in
08:51 37.6 °F 35.2 °F 30.39 in NNW 3.0 mph 7.0 mph 91 % 0.00 in
08:56 37.6 °F 35.2 °F 30.39 in NNE 5.0 mph 7.0 mph 91 % 0.00 in
09:01 37.8 °F 35.4 °F 30.40 in Calm   8.0 mph 91 % 0.00 in
09:06 37.8 °F 35.4 °F 30.40 in NW 3.0 mph 8.0 mph 91 % 0.00 in
09:11 37.8 °F 35.4 °F 30.40 in NW 1.0 mph 8.0 mph 91 % 0.00 in
09:16 37.9 °F 35.6 °F 30.40 in Calm   8.0 mph 91 % 0.00 in
09:21 38.1 °F 35.4 °F 30.41 in NNW 3.0 mph 6.0 mph 90 % 0.00 in
09:26 38.1 °F 35.4 °F 30.41 in Calm   7.0 mph 90 % 0.00 in
09:31 38.1 °F 35.4 °F 30.41 in NW 2.0 mph 7.0 mph 90 % 0.00 in
09:36 38.3 °F 35.6 °F 30.41 in NW 1.0 mph 7.0 mph 90 % 0.00 in
09:41 38.5 °F 35.8 °F 30.41 in Calm   6.0 mph 90 % 0.00 in
09:46 38.8 °F 36.1 °F 30.41 in NW 1.0 mph 5.0 mph 90 % 0.00 in
09:51 38.8 °F 36.1 °F 30.41 in NW 2.0 mph 5.0 mph 90 % 0.00 in
09:56 39.0 °F 36.3 °F 30.40 in Calm   5.0 mph 90 % 0.00 in
10:01 39.0 °F 36.3 °F 30.40 in NE 2.0 mph 5.0 mph 90 % 0.00 in
10:06 39.0 °F 36.1 °F 30.40 in WNW 2.0 mph 5.0 mph 89 % 0.00 in
10:11 39.2 °F 36.3 °F 30.40 in NW 3.0 mph 7.0 mph 89 % 0.00 in
10:16 39.2 °F 36.3 °F 30.40 in NNW 3.0 mph 7.0 mph 89 % 0.00 in
10:21 39.4 °F 36.5 °F 30.40 in NW 1.0 mph 7.0 mph 89 % 0.00 in
10:26 39.6 °F 36.5 °F 30.40 in NNE 2.0 mph 7.0 mph 89 % 0.00 in
10:31 39.7 °F 36.7 °F 30.40 in North 1.0 mph 7.0 mph 89 % 0.00 in
10:36 39.7 °F 36.5 °F 30.41 in NE 2.0 mph 7.0 mph 88 % 0.00 in
10:41 39.9 °F 36.9 °F 30.41 in North 1.0 mph 6.0 mph 89 % 0.00 in
10:46 39.9 °F 36.7 °F 30.41 in Calm   6.0 mph 88 % 0.00 in
10:51 40.1 °F 36.9 °F 30.41 in NNW 2.0 mph 6.0 mph 88 % 0.00 in
10:56 40.3 °F 37.0 °F 30.40 in NNE 1.0 mph 7.0 mph 88 % 0.00 in
11:01 40.5 °F 37.4 °F 30.40 in North 1.0 mph 7.0 mph 89 % 0.00 in
11:06 40.8 °F 37.6 °F 30.40 in NNW 5.0 mph 7.0 mph 88 % 0.00 in
11:11 40.8 °F 37.2 °F 30.39 in NNW 2.0 mph 7.0 mph 87 % 0.00 in
11:16 41.2 °F 37.6 °F 30.40 in NNW 4.0 mph 7.0 mph 87 % 0.00 in
11:21 41.5 °F 37.9 °F 30.40 in NW 1.0 mph 8.0 mph 87 % 0.00 in
11:26 41.5 °F 37.9 °F 30.40 in North 4.0 mph 8.0 mph 87 % 0.00 in
11:31 41.5 °F 37.6 °F 30.40 in NW 1.0 mph 8.0 mph 86 % 0.00 in
11:36 41.7 °F 37.8 °F 30.40 in Calm   8.0 mph 86 % 0.00 in
11:41 41.9 °F 37.9 °F 30.39 in NE 1.0 mph 8.0 mph 86 % 0.00 in
11:46 42.3 °F 38.3 °F 30.39 in North 2.0 mph 7.0 mph 86 % 0.00 in
11:51 42.6 °F 38.5 °F 30.39 in North 3.0 mph 7.0 mph 85 % 0.00 in
11:56 42.4 °F 38.3 °F 30.39 in NNW 3.0 mph 7.0 mph 85 % 0.00 in
12:01 42.3 °F 38.1 °F 30.39 in NW 4.0 mph 8.0 mph 85 % 0.00 in
12:06 42.3 °F 38.3 °F 30.39 in NNE 2.0 mph 8.0 mph 86 % 0.00 in
12:11 42.6 °F 38.7 °F 30.38 in NNW 1.0 mph 8.0 mph 86 % 0.00 in
12:16 43.0 °F 39.0 °F 30.38 in NE 2.0 mph 9.0 mph 86 % 0.00 in
12:21 43.2 °F 39.0 °F 30.38 in NNW 4.0 mph 9.0 mph 85 % 0.00 in
12:26 43.2 °F 38.7 °F 30.38 in NNW 3.0 mph 9.0 mph 84 % 0.00 in
12:31 43.3 °F 38.8 °F 30.38 in NNW 2.0 mph 7.0 mph 84 % 0.00 in
12:36 43.3 °F 38.8 °F 30.37 in WNW 2.0 mph 7.0 mph 84 % 0.00 in
12:41 43.2 °F 38.7 °F 30.37 in NNE 3.0 mph 8.0 mph 84 % 0.00 in
12:46 43.5 °F 39.4 °F 30.38 in NNW 4.0 mph 8.0 mph 85 % 0.00 in
12:51 43.3 °F 38.8 °F 30.37 in NW 1.0 mph 8.0 mph 84 % 0.00 in
12:56 43.3 °F 38.8 °F 30.37 in NNW 2.0 mph 8.0 mph 84 % 0.00 in
13:01 43.7 °F 39.2 °F 30.36 in NNW 5.0 mph 8.0 mph 84 % 0.00 in
13:06 43.9 °F 39.4 °F 30.36 in NNW 7.0 mph 8.0 mph 84 % 0.00 in
13:11 43.7 °F 39.2 °F 30.36 in NW 2.0 mph 8.0 mph 84 % 0.00 in
13:16 44.1 °F 39.6 °F 30.35 in NW 4.0 mph 8.0 mph 84 % 0.00 in
13:21 44.1 °F 39.2 °F 30.35 in NW 3.0 mph 8.0 mph 83 % 0.00 in
13:26 44.1 °F 39.6 °F 30.35 in NNW 6.0 mph 8.0 mph 84 % 0.00 in
13:31 44.1 °F 39.2 °F 30.35 in NNW 4.0 mph 8.0 mph 83 % 0.00 in
13:36 44.1 °F 39.6 °F 30.35 in NW 5.0 mph 8.0 mph 84 % 0.00 in
13:41 44.2 °F 39.7 °F 30.35 in NNW 1.0 mph 8.0 mph 84 % 0.00 in
13:46 44.8 °F 40.3 °F 30.35 in NNW 2.0 mph 8.0 mph 84 % 0.00 in
13:51 44.8 °F 39.9 °F 30.35 in NW 2.0 mph 7.0 mph 83 % 0.00 in
13:56 44.8 °F 39.9 °F 30.35 in North 4.0 mph 6.0 mph 83 % 0.00 in
14:01 44.8 °F 39.9 °F 30.34 in North 5.0 mph 8.0 mph 83 % 0.00 in
14:06 44.8 °F 39.9 °F 30.34 in North 3.0 mph 9.0 mph 83 % 0.00 in
14:11 45.1 °F 40.3 °F 30.33 in NNW 6.0 mph 9.0 mph 83 % 0.00 in
14:16 45.0 °F 40.1 °F 30.34 in NW 3.0 mph 9.0 mph 83 % 0.00 in
14:22 45.1 °F 40.3 °F 30.34 in NNE 4.0 mph 7.0 mph 83 % 0.00 in
14:27 45.0 °F 40.1 °F 30.34 in NNW 2.0 mph 8.0 mph 83 % 0.00 in
14:32 44.8 °F 39.9 °F 30.34 in North 2.0 mph 8.0 mph 83 % 0.00 in
14:37 44.8 °F 40.3 °F 30.34 in NW 1.0 mph 8.0 mph 84 % 0.00 in
14:42 45.0 °F 40.5 °F 30.34 in WNW 2.0 mph 8.0 mph 84 % 0.00 in
14:47 45.1 °F 40.6 °F 30.34 in NNW 1.0 mph 8.0 mph 84 % 0.00 in
14:52 45.1 °F 40.6 °F 30.34 in NNW 3.0 mph 8.0 mph 84 % 0.00 in
14:57 45.3 °F 40.8 °F 30.34 in NW 2.0 mph 5.0 mph 84 % 0.00 in
15:02 45.5 °F 41.0 °F 30.33 in North 5.0 mph 7.0 mph 84 % 0.00 in
15:07 45.7 °F 40.8 °F 30.33 in NW 4.0 mph 7.0 mph 83 % 0.00 in
15:12 45.5 °F 40.6 °F 30.33 in West 5.0 mph 7.0 mph 83 % 0.00 in
15:17 45.7 °F 41.2 °F 30.33 in NNW 1.0 mph 9.0 mph 84 % 0.00 in
15:22 45.5 °F 41.0 °F 30.33 in WNW 2.0 mph 9.0 mph 84 % 0.00 in
15:27 45.5 °F 41.0 °F 30.33 in NE 5.0 mph 9.0 mph 84 % 0.00 in
15:32 45.5 °F 41.2 °F 30.33 in NW 2.0 mph 9.0 mph 85 % 0.00 in
15:37 45.7 °F 41.2 °F 30.33 in North 3.0 mph 8.0 mph 84 % 0.00 in
15:42 45.7 °F 41.2 °F 30.33 in NW 2.0 mph 7.0 mph 84 % 0.00 in
15:47 45.9 °F 41.4 °F 30.33 in NNW 1.0 mph 7.0 mph 84 % 0.00 in
15:52 46.0 °F 41.5 °F 30.32 in North 3.0 mph 7.0 mph 84 % 0.00 in
15:57 46.2 °F 41.7 °F 30.32 in WNW 3.0 mph 7.0 mph 84 % 0.00 in
16:02 46.2 °F 41.4 °F 30.33 in NNW 2.0 mph 9.0 mph 83 % 0.00 in
16:07 46.2 °F 41.4 °F 30.33 in NNW 4.0 mph 9.0 mph 83 % 0.00 in
16:12 46.0 °F 41.2 °F 30.33 in North 7.0 mph 9.0 mph 83 % 0.00 in
16:17 46.0 °F 41.5 °F 30.33 in ENE 1.0 mph 10.0 mph 84 % 0.00 in
16:22 46.2 °F 41.7 °F 30.33 in NNE 1.0 mph 10.0 mph 84 % 0.00 in
16:27 46.2 °F 41.7 °F 30.32 in NNE 3.0 mph 10.0 mph 84 % 0.00 in
16:32 46.2 °F 41.7 °F 30.32 in Calm   8.0 mph 84 % 0.00 in
16:37 46.2 °F 41.4 °F 30.32 in NE 3.0 mph 8.0 mph 83 % 0.00 in
16:42 46.0 °F 41.5 °F 30.32 in WNW 2.0 mph 7.0 mph 84 % 0.00 in
16:47 46.0 °F 41.5 °F 30.32 in East 1.0 mph 7.0 mph 84 % 0.00 in
16:52 46.0 °F 41.5 °F 30.32 in NNW 1.0 mph 7.0 mph 84 % 0.00 in
16:57 46.0 °F 41.5 °F 30.33 in NNW 3.0 mph 7.0 mph 84 % 0.00 in
17:02 45.9 °F 41.4 °F 30.33 in Calm   7.0 mph 84 % 0.00 in
17:07 45.9 °F 41.5 °F 30.33 in NNE 3.0 mph 7.0 mph 85 % 0.00 in
17:12 45.9 °F 41.5 °F 30.33 in NNE 1.0 mph 7.0 mph 85 % 0.00 in
17:17 45.9 °F 41.5 °F 30.34 in NE 2.0 mph 7.0 mph 85 % 0.00 in
17:22 45.7 °F 41.4 °F 30.34 in NNW 1.0 mph 7.0 mph 85 % 0.00 in
17:27 45.3 °F 41.0 °F 30.34 in NNE 3.0 mph 7.0 mph 85 % 0.00 in
17:32 45.1 °F 41.2 °F 30.34 in NE 2.0 mph 7.0 mph 86 % 0.00 in
17:37 45.0 °F 41.0 °F 30.34 in ENE 3.0 mph 7.0 mph 86 % 0.00 in
17:42 45.0 °F 41.4 °F 30.34 in East 4.0 mph 7.0 mph 87 % 0.00 in
17:47 44.8 °F 41.2 °F 30.34 in WNW 1.0 mph 6.0 mph 87 % 0.00 in
17:52 44.6 °F 41.0 °F 30.34 in NNW 1.0 mph 5.0 mph 87 % 0.00 in
17:57 44.4 °F 41.2 °F 30.34 in NE 1.0 mph 8.0 mph 88 % 0.00 in
18:02 44.4 °F 41.2 °F 30.35 in NNE 1.0 mph 8.0 mph 88 % 0.00 in
18:07 44.4 °F 41.2 °F 30.35 in NNW 2.0 mph 8.0 mph 88 % 0.00 in
18:12 44.2 °F 41.0 °F 30.35 in Calm   8.0 mph 88 % 0.00 in
18:17 44.2 °F 41.2 °F 30.35 in NE 1.0 mph 7.0 mph 89 % 0.00 in
18:22 44.2 °F 41.2 °F 30.35 in Calm   6.0 mph 89 % 0.00 in
18:27 44.2 °F 41.2 °F 30.35 in Calm   6.0 mph 89 % 0.00 in
18:32 44.2 °F 41.2 °F 30.35 in Calm   6.0 mph 89 % 0.00 in
18:37 44.1 °F 41.0 °F 30.35 in NNE 3.0 mph 5.0 mph 89 % 0.00 in
18:42 44.1 °F 41.4 °F 30.36 in East 1.0 mph 6.0 mph 90 % 0.00 in
18:47 43.9 °F 41.2 °F 30.36 in ESE 2.0 mph 6.0 mph 90 % 0.00 in
18:52 43.9 °F 41.2 °F 30.36 in East 1.0 mph 6.0 mph 90 % 0.00 in
18:57 43.9 °F 41.2 °F 30.36 in Calm   5.0 mph 90 % 0.00 in
19:02 43.9 °F 41.4 °F 30.36 in NNW 1.0 mph 4.0 mph 91 % 0.00 in
19:08 43.9 °F 41.4 °F 30.36 in NNE 4.0 mph 5.0 mph 91 % 0.00 in
19:13 43.5 °F 41.0 °F 30.36 in NNE 1.0 mph 8.0 mph 91 % 0.00 in
19:18 43.5 °F 41.4 °F 30.36 in North 2.0 mph 8.0 mph 92 % 0.00 in
19:23 43.5 °F 41.4 °F 30.36 in Calm   8.0 mph 92 % 0.00 in
19:28 43.5 °F 41.4 °F 30.36 in East 1.0 mph 5.0 mph 92 % 0.00 in
19:33 43.3 °F 41.5 °F 30.36 in East 1.0 mph 5.0 mph 93 % 0.00 in
19:38 43.3 °F 41.5 °F 30.37 in Calm   5.0 mph 93 % 0.00 in
19:43 43.3 °F 41.5 °F 30.37 in NE 1.0 mph 5.0 mph 93 % 0.00 in
19:48 43.3 °F 41.5 °F 30.37 in East 2.0 mph 8.0 mph 93 % 0.00 in
19:53 43.3 °F 41.5 °F 30.37 in ENE 3.0 mph 8.0 mph 93 % 0.00 in
19:58 43.3 °F 41.5 °F 30.37 in NNW 1.0 mph 8.0 mph 93 % 0.00 in
20:03 43.3 °F 41.5 °F 30.37 in NE 2.0 mph 7.0 mph 93 % 0.00 in
20:08 43.3 °F 41.5 °F 30.37 in NNE 1.0 mph 7.0 mph 93 % 0.00 in
20:13 43.5 °F 41.7 °F 30.38 in ENE 1.0 mph 5.0 mph 93 % 0.00 in
20:18 43.5 °F 41.9 °F 30.38 in East 6.0 mph 6.0 mph 94 % 0.00 in
20:23 43.5 °F 41.7 °F 30.38 in Calm   7.0 mph 93 % 0.00 in
20:28 43.5 °F 41.9 °F 30.38 in NE 2.0 mph 7.0 mph 94 % 0.00 in
20:33 43.5 °F 41.9 °F 30.38 in NE 3.0 mph 7.0 mph 94 % 0.00 in
20:38 43.5 °F 41.9 °F 30.38 in NNW 3.0 mph 5.0 mph 94 % 0.00 in
20:43 43.5 °F 41.9 °F 30.38 in ENE 1.0 mph 5.0 mph 94 % 0.00 in
20:48 43.5 °F 41.9 °F 30.38 in Calm   5.0 mph 94 % 0.00 in
20:53 43.5 °F 41.9 °F 30.38 in North 2.0 mph 5.0 mph 94 % 0.00 in
20:58 43.5 °F 41.9 °F 30.38 in NNE 7.0 mph 7.0 mph 94 % 0.00 in
21:03 43.5 °F 41.9 °F 30.38 in Calm   9.0 mph 94 % 0.00 in
21:08 43.5 °F 41.9 °F 30.38 in NNE 2.0 mph 9.0 mph 94 % 0.00 in
21:13 43.5 °F 41.9 °F 30.38 in Calm   9.0 mph 94 % 0.00 in
21:18 43.5 °F 41.9 °F 30.38 in WNW 2.0 mph 6.0 mph 94 % 0.00 in
21:23 43.5 °F 41.9 °F 30.38 in NE 2.0 mph 6.0 mph 94 % 0.00 in
21:28 43.5 °F 41.9 °F 30.38 in NNW 1.0 mph 5.0 mph 94 % 0.00 in
21:33 43.5 °F 41.9 °F 30.38 in NNE 2.0 mph 5.0 mph 94 % 0.00 in
21:38 43.5 °F 41.9 °F 30.38 in Calm   5.0 mph 94 % 0.00 in
21:43 43.5 °F 41.9 °F 30.38 in North 1.0 mph 5.0 mph 94 % 0.00 in
21:48 43.5 °F 41.9 °F 30.38 in Calm   6.0 mph 94 % 0.00 in
21:53 43.5 °F 41.9 °F 30.38 in Calm   6.0 mph 94 % 0.00 in
21:58 43.5 °F 41.9 °F 30.38 in East 2.0 mph 6.0 mph 94 % 0.00 in
22:03 43.5 °F 41.9 °F 30.38 in NNE 2.0 mph 6.0 mph 94 % 0.00 in
22:08 43.5 °F 41.9 °F 30.38 in East 5.0 mph 6.0 mph 94 % 0.00 in
22:13 43.5 °F 41.9 °F 30.38 in ENE 4.0 mph 6.0 mph 94 % 0.00 in
22:18 43.5 °F 41.9 °F 30.38 in NNW 2.0 mph 6.0 mph 94 % 0.00 in
22:23 43.5 °F 41.9 °F 30.38 in North 2.0 mph 7.0 mph 94 % 0.00 in
22:28 43.3 °F 41.7 °F 30.38 in NE 5.0 mph 7.0 mph 94 % 0.00 in
22:33 43.3 °F 41.7 °F 30.38 in ENE 4.0 mph 7.0 mph 94 % 0.00 in
22:38 43.3 °F 41.7 °F 30.38 in ENE 1.0 mph 7.0 mph 94 % 0.00 in
22:43 43.3 °F 41.7 °F 30.38 in NE 1.0 mph 7.0 mph 94 % 0.00 in
22:48 43.3 °F 41.7 °F 30.38 in Calm   7.0 mph 94 % 0.00 in
22:53 43.3 °F 41.7 °F 30.38 in North 2.0 mph 7.0 mph 94 % 0.00 in
22:58 43.3 °F 41.7 °F 30.38 in ENE 4.0 mph 5.0 mph 94 % 0.00 in
23:03 43.3 °F 41.7 °F 30.38 in NW 1.0 mph 8.0 mph 94 % 0.00 in
23:08 43.3 °F 41.7 °F 30.38 in NE 1.0 mph 8.0 mph 94 % 0.00 in
23:13 43.3 °F 41.7 °F 30.38 in ENE 1.0 mph 8.0 mph 94 % 0.00 in
23:18 43.3 °F 41.7 °F 30.38 in Calm   6.0 mph 94 % 0.00 in
23:23 43.2 °F 41.5 °F 30.38 in ENE 6.0 mph 6.0 mph 94 % 0.00 in
23:28 43.3 °F 41.7 °F 30.38 in Calm   6.0 mph 94 % 0.00 in
23:33 43.2 °F 41.5 °F 30.38 in NE 1.0 mph 6.0 mph 94 % 0.00 in
23:38 43.3 °F 41.7 °F 30.38 in Calm   6.0 mph 94 % 0.00 in
23:44 43.3 °F 41.7 °F 30.38 in NNE 1.0 mph 6.0 mph 94 % 0.00 in
23:49 43.3 °F 41.7 °F 30.38 in Calm   5.0 mph 94 % 0.00 in
23:54 43.3 °F 41.7 °F 30.38 in Calm   5.0 mph 94 % 0.00 in
23:59 43.5 °F 41.9 °F 30.38 in Calm   3.0 mph 94 % 0.00 in
Spring, Texas: Villages of Bridgestone
Compliments of Weather Underground - 3 mb

Script developed by  Jim McMurry - jmcmurry@mwt.net Adapted for the template by  Wim van der Kuil - Leuven-Template.eu

You find our weather info also at:

UK Metoffice

WeatherCloud

Weather Underground

Mid-South Weather Network

AWEKAS

Citizen Weather Observer Program (CWOP)

HAMweather, WeatherForYou, PWS Weather

Equipment we use:

Weather-station
Davis Vantage Vue

Weather-program
Meteohub

Weather-server
Debian 7.9 x86 (Guest)

Provider
DreamHost

Davis Vantage Vue

Meteohub

Debian 7.9 x86 (Guest)

DreamHost